Time;durP1;ratioP1;P1;durP2;ratioP2;P2;SDS_P1;SDS_P2;PMS_P1;PMS_P2;Temp;Humidity;BMP_temperature;BMP_pressure;BME280_temperature;BME280_humidity;BME280_pressure;Samples;Min_cycle;Max_cycle;Signal;HPM_P1;HPM_P2
2023/11/11 00:02:06;;;;;;;;;;;7.60;99.90;;;;;;5041400;28;19909;-79
2023/11/11 00:04:32;;;;;;;;;;;7.60;99.90;;;;;;5058555;28;19912;-78
2023/11/11 00:06:59;;;;;;;;;;;7.60;99.90;;;;;;5059104;28;19939;-81
2023/11/11 00:09:25;;;;;;;;;;;7.60;99.90;;;;;;5060705;28;19915;-79
2023/11/11 00:11:51;;;;;;;;;;;7.70;99.90;;;;;;5057784;28;19999;-79
2023/11/11 00:14:17;;;;;;;;;;;7.80;99.90;;;;;;5058733;28;19909;-78
2023/11/11 00:16:42;;;;;;;;;;;7.70;99.90;;;;;;5058682;28;19908;-79
2023/11/11 00:19:09;;;;;;;;;;;7.70;99.90;;;;;;5058625;28;20502;-78
2023/11/11 00:21:38;;;;;;;;;;;7.70;99.90;;;;;;5040851;28;19905;-78
2023/11/11 00:24:09;;;;;;;;;;;7.60;99.90;;;;;;5062202;28;19972;-78
2023/11/11 00:26:35;;;;;;;;;;;7.70;99.90;;;;;;5059971;28;19916;-78
2023/11/11 00:29:03;;;;;;;;;;;7.70;99.90;;;;;;5063265;28;19911;-78
2023/11/11 00:31:30;;;;;;;;;;;7.70;99.90;;;;;;5060924;28;20028;-78
2023/11/11 00:33:55;;;;;;;;;;;7.70;99.90;;;;;;5061032;28;19909;-79
2023/11/11 00:36:21;;;;;;;;;;;7.70;99.90;;;;;;5044789;28;19940;-78
2023/11/11 00:38:46;;;;;;;;;;;7.70;99.90;;;;;;5062902;28;19905;-78
2023/11/11 00:41:13;;;;;;;;;;;7.60;99.90;;;;;;5061366;28;19905;-78
2023/11/11 00:43:38;;;;;;;;;;;7.60;99.90;;;;;;5044541;28;20876;-79
2023/11/11 00:46:04;;;;;;;;;;;7.60;99.90;;;;;;5045159;28;19916;-79
2023/11/11 00:48:31;;;;;;;;;;;7.70;99.90;;;;;;5043176;28;20357;-77
2023/11/11 00:50:58;;;;;;;;;;;7.80;99.90;;;;;;5062196;28;20003;-78
2023/11/11 00:53:24;;;;;;;;;;;7.70;99.90;;;;;;5063087;28;19920;-78
2023/11/11 00:55:49;;;;;;;;;;;7.70;99.90;;;;;;5044528;28;19970;-78
2023/11/11 00:58:15;;;;;;;;;;;7.70;99.90;;;;;;5061274;28;19966;-79
2023/11/11 01:00:42;;;;;;;;;;;7.70;99.90;;;;;;5044299;28;20426;-78
2023/11/11 01:03:08;;;;;;;;;;;7.70;99.90;;;;;;5044729;28;19908;-79
2023/11/11 01:05:35;;;;;;;;;;;7.70;99.90;;;;;;5047064;28;20250;-79
2023/11/11 01:08:00;;;;;;;;;;;7.70;99.90;;;;;;5045730;28;20319;-79
2023/11/11 01:10:28;;;;;;;;;;;7.80;99.90;;;;;;5066066;28;19928;-79
2023/11/11 01:12:59;;;;;;;;;;;7.80;99.90;;;;;;5052658;28;19947;-79
2023/11/11 01:15:26;;;;;;;;;;;7.80;99.90;;;;;;5051779;28;19912;-79
2023/11/11 01:17:53;;;;;;;;;;;7.80;99.90;;;;;;5052141;28;19912;-77
2023/11/11 01:20:20;;;;;;;;;;;7.80;99.90;;;;;;5073966;28;19972;-78
2023/11/11 01:22:47;;;;;;;;;;;7.80;99.90;;;;;;5056217;28;19912;-79
2023/11/11 01:25:16;;;;;;;;;;;7.80;99.90;;;;;;5055623;28;19905;-79
2023/11/11 01:27:44;;;;;;;;;;;7.90;99.90;;;;;;5054902;28;19912;-79
2023/11/11 01:30:16;;;;;;;;;;;7.90;99.90;;;;;;5070029;28;19967;-80
2023/11/11 01:32:51;;;;;;;;;;;7.90;99.90;;;;;;5054510;28;19927;-79
2023/11/11 01:35:17;;;;;;;;;;;8.00;99.90;;;;;;5045719;28;19915;-79
2023/11/11 01:37:42;;;;;;;;;;;7.80;99.90;;;;;;5058863;28;20062;-78
2023/11/11 01:40:08;;;;;;;;;;;7.80;99.90;;;;;;5058526;28;19913;-78
2023/11/11 01:42:34;;;;;;;;;;;7.80;99.90;;;;;;5039873;28;19904;-79
2023/11/11 01:44:59;;;;;;;;;;;7.80;99.90;;;;;;5041137;28;20262;-78
2023/11/11 01:47:25;;;;;;;;;;;7.70;99.90;;;;;;5059659;28;20582;-79
2023/11/11 01:49:51;;;;;;;;;;;7.70;99.90;;;;;;5072819;28;19983;-78
2023/11/11 01:52:16;;;;;;;;;;;7.80;99.90;;;;;;5051288;28;19905;-79
2023/11/11 01:54:44;;;;;;;;;;;7.70;99.90;;;;;;5047911;28;19916;-80
2023/11/11 01:57:10;;;;;;;;;;;7.80;99.90;;;;;;5070469;28;20384;-79
2023/11/11 01:59:50;;;;;;;;;;;7.70;99.90;;;;;;5069471;28;19944;-79
2023/11/11 02:02:16;;;;;;;;;;;7.80;99.90;;;;;;5046994;28;20305;-78
2023/11/11 02:04:42;;;;;;;;;;;7.80;99.90;;;;;;5053477;28;19912;-78
2023/11/11 02:07:08;;;;;;;;;;;7.80;99.90;;;;;;5054842;28;19924;-77
2023/11/11 02:09:34;;;;;;;;;;;7.70;99.90;;;;;;5023424;28;19917;-78
2023/11/11 02:11:59;;;;;;;;;;;7.70;99.90;;;;;;5055687;28;19996;-79
2023/11/11 02:14:25;;;;;;;;;;;7.80;99.90;;;;;;5058082;28;19911;-79
2023/11/11 02:16:51;;;;;;;;;;;8.10;99.90;;;;;;5059855;28;20212;-78
2023/11/11 02:19:17;;;;;;;;;;;7.80;99.90;;;;;;5045170;28;20402;-79
2023/11/11 02:21:43;;;;;;;;;;;7.80;99.90;;;;;;5040878;28;19947;-79
2023/11/11 02:24:10;;;;;;;;;;;7.80;99.90;;;;;;5063537;28;19913;-79
2023/11/11 02:26:35;;;;;;;;;;;7.80;99.90;;;;;;5060554;28;19908;-79
2023/11/11 02:29:01;;;;;;;;;;;7.80;99.90;;;;;;5043979;28;19919;-79
2023/11/11 02:31:27;;;;;;;;;;;7.90;99.90;;;;;;5061118;28;19905;-79
2023/11/11 02:33:52;;;;;;;;;;;7.90;99.90;;;;;;5043442;28;19905;-78
2023/11/11 02:36:19;;;;;;;;;;;7.80;99.90;;;;;;5059864;28;19915;-78
2023/11/11 02:38:46;;;;;;;;;;;7.70;99.90;;;;;;5060338;28;19913;-79
2023/11/11 02:41:11;;;;;;;;;;;8.20;99.90;;;;;;5061576;28;19916;-78
2023/11/11 02:43:37;;;;;;;;;;;7.60;99.90;;;;;;5042868;28;20004;-79
2023/11/11 02:46:02;;;;;;;;;;;7.80;99.90;;;;;;5043284;28;19958;-79
2023/11/11 02:48:28;;;;;;;;;;;7.80;99.90;;;;;;5043239;28;19923;-78
2023/11/11 02:50:53;;;;;;;;;;;8.00;99.90;;;;;;5060901;28;19931;-79
2023/11/11 02:53:20;;;;;;;;;;;7.90;99.90;;;;;;5061984;28;20287;-79
2023/11/11 02:55:46;;;;;;;;;;;7.90;99.90;;;;;;5042975;28;19905;-78
2023/11/11 02:58:13;;;;;;;;;;;7.90;99.90;;;;;;5059668;28;20003;-78
2023/11/11 03:00:40;;;;;;;;;;;7.90;99.90;;;;;;5047493;28;19943;-79
2023/11/11 03:03:07;;;;;;;;;;;7.90;99.90;;;;;;5065723;28;19905;-80
2023/11/11 03:05:33;;;;;;;;;;;7.80;99.90;;;;;;5047626;28;19995;-79
2023/11/11 03:07:58;;;;;;;;;;;7.80;99.90;;;;;;5046620;28;19962;-79
2023/11/11 03:10:24;;;;;;;;;;;7.90;99.90;;;;;;5064615;28;19908;-79
2023/11/11 03:12:50;;;;;;;;;;;7.90;99.90;;;;;;5065015;28;19964;-79
2023/11/11 03:15:16;;;;;;;;;;;7.90;99.90;;;;;;5041245;28;19935;-78
2023/11/11 03:17:42;;;;;;;;;;;7.90;99.90;;;;;;5057731;28;20380;-78
2023/11/11 03:20:08;;;;;;;;;;;7.90;99.90;;;;;;5057351;28;20290;-79
2023/11/11 03:22:34;;;;;;;;;;;7.90;99.90;;;;;;5056325;28;19912;-78
2023/11/11 03:24:59;;;;;;;;;;;7.90;99.90;;;;;;5039658;28;20272;-78
2023/11/11 03:27:25;;;;;;;;;;;7.90;99.90;;;;;;5061931;28;19909;-79
2023/11/11 03:29:51;;;;;;;;;;;7.90;99.90;;;;;;5044277;28;19948;-78
2023/11/11 03:32:16;;;;;;;;;;;7.90;99.90;;;;;;5061019;28;19915;-79
2023/11/11 03:34:49;;;;;;;;;;;7.90;99.90;;;;;;5067145;28;19908;-80
2023/11/11 03:38:09;;;;;;;;;;;7.90;99.90;;;;;;5069418;28;20481;-78
2023/11/11 03:40:38;;;;;;;;;;;8.00;99.90;;;;;;5069617;28;19915;-79
2023/11/11 03:43:03;;;;;;;;;;;8.00;99.90;;;;;;5062295;28;20296;-80
2023/11/11 03:45:29;;;;;;;;;;;7.90;99.90;;;;;;5046251;28;19912;-79
2023/11/11 03:47:55;;;;;;;;;;;7.90;99.90;;;;;;5063752;28;19938;-79
2023/11/11 03:50:21;;;;;;;;;;;8.10;99.90;;;;;;5047006;28;19905;-77
2023/11/11 03:52:47;;;;;;;;;;;8.10;99.90;;;;;;5044174;28;19904;-77
2023/11/11 03:55:12;;;;;;;;;;;8.10;99.90;;;;;;5041391;28;19904;-77
2023/11/11 03:57:38;;;;;;;;;;;8.00;99.90;;;;;;5043257;28;20391;-77
2023/11/11 04:00:11;;;;;;;;;;;8.00;99.90;;;;;;5043923;28;19954;-78
2023/11/11 04:02:37;;;;;;;;;;;8.00;99.90;;;;;;5041461;28;19928;-77
2023/11/11 04:05:03;;;;;;;;;;;8.00;99.90;;;;;;5039497;28;19955;-77
2023/11/11 04:07:29;;;;;;;;;;;8.00;99.90;;;;;;5054643;28;20384;-78
2023/11/11 04:09:56;;;;;;;;;;;8.10;99.90;;;;;;5037745;28;19954;-78
2023/11/11 04:12:22;;;;;;;;;;;8.00;99.90;;;;;;5036190;28;19908;-76
2023/11/11 04:14:48;;;;;;;;;;;8.00;99.90;;;;;;5054184;28;19955;-77
2023/11/11 04:17:13;;;;;;;;;;;8.00;99.90;;;;;;5057300;28;19908;-78
2023/11/11 04:19:39;;;;;;;;;;;8.00;99.90;;;;;;5061378;28;19908;-77
2023/11/11 04:22:04;;;;;;;;;;;7.90;99.90;;;;;;5060625;28;19908;-78
2023/11/11 04:24:31;;;;;;;;;;;7.90;99.90;;;;;;5063460;28;19916;-78
2023/11/11 04:26:58;;;;;;;;;;;8.00;99.90;;;;;;5046890;28;19952;-77
2023/11/11 04:29:24;;;;;;;;;;;7.80;99.90;;;;;;5046376;28;19905;-77
2023/11/11 04:31:50;;;;;;;;;;;7.90;99.90;;;;;;5044782;28;19905;-78
2023/11/11 04:34:15;;;;;;;;;;;7.90;99.90;;;;;;5062655;28;19915;-78
2023/11/11 04:36:41;;;;;;;;;;;7.90;99.90;;;;;;5045813;28;19905;-78
2023/11/11 04:39:08;;;;;;;;;;;8.00;99.90;;;;;;5063427;28;19915;-78
2023/11/11 04:41:35;;;;;;;;;;;8.00;99.90;;;;;;5028981;28;19941;-78
2023/11/11 04:44:00;;;;;;;;;;;8.00;99.90;;;;;;5044932;28;19908;-78
2023/11/11 04:46:27;;;;;;;;;;;8.00;99.90;;;;;;5062262;28;20050;-78
2023/11/11 04:48:53;;;;;;;;;;;8.00;99.90;;;;;;5045441;28;19931;-78
2023/11/11 04:51:19;;;;;;;;;;;8.00;99.90;;;;;;5062758;28;20377;-78
2023/11/11 04:53:44;;;;;;;;;;;8.00;99.90;;;;;;5045353;28;19905;-77
2023/11/11 04:56:10;;;;;;;;;;;7.90;99.90;;;;;;5043148;28;19909;-78
2023/11/11 04:58:38;;;;;;;;;;;7.90;99.90;;;;;;5042186;28;19905;-78
2023/11/11 05:01:05;;;;;;;;;;;8.00;99.90;;;;;;5042058;28;19909;-77
2023/11/11 05:03:31;;;;;;;;;;;8.00;99.90;;;;;;5041900;28;19908;-78
2023/11/11 05:05:57;;;;;;;;;;;8.10;99.90;;;;;;5047089;28;19911;-79
2023/11/11 05:08:23;;;;;;;;;;;8.00;99.90;;;;;;5049372;28;19913;-79
2023/11/11 05:10:52;;;;;;;;;;;8.00;99.90;;;;;;5071710;28;19929;-78
2023/11/11 05:13:20;;;;;;;;;;;8.10;99.90;;;;;;5050425;28;19932;-78
2023/11/11 05:15:47;;;;;;;;;;;8.00;99.90;;;;;;5067861;28;19905;-78
2023/11/11 05:18:16;;;;;;;;;;;7.90;99.90;;;;;;5068382;28;19905;-78
2023/11/11 05:20:41;;;;;;;;;;;7.90;99.90;;;;;;5066824;28;19916;-78
2023/11/11 05:23:09;;;;;;;;;;;7.90;99.90;;;;;;5050186;28;19909;-79
2023/11/11 05:25:35;;;;;;;;;;;8.00;99.90;;;;;;5067768;28;19905;-78
2023/11/11 05:28:01;;;;;;;;;;;8.00;99.90;;;;;;5061587;28;19983;-77
2023/11/11 05:30:27;;;;;;;;;;;7.90;99.90;;;;;;5042531;28;20380;-78
2023/11/11 05:32:53;;;;;;;;;;;7.90;99.90;;;;;;5059342;28;19905;-77
2023/11/11 05:35:19;;;;;;;;;;;8.00;99.90;;;;;;5038767;28;19966;-77
2023/11/11 05:37:44;;;;;;;;;;;8.00;99.90;;;;;;5050094;28;19932;-78
2023/11/11 05:40:18;;;;;;;;;;;8.00;99.90;;;;;;5068568;28;19909;-78
2023/11/11 05:42:47;;;;;;;;;;;8.00;99.90;;;;;;5052594;28;19940;-76
2023/11/11 05:45:17;;;;;;;;;;;8.00;99.90;;;;;;5069193;28;20442;-78
2023/11/11 05:48:04;;;;;;;;;;;8.00;99.90;;;;;;5070360;28;20039;-78
2023/11/11 05:50:34;;;;;;;;;;;8.00;99.90;;;;;;5068613;28;19908;-78
2023/11/11 05:53:03;;;;;;;;;;;8.00;99.90;;;;;;5070315;28;19940;-78
2023/11/11 05:55:31;;;;;;;;;;;8.00;99.90;;;;;;5070304;28;19911;-78
2023/11/11 05:57:57;;;;;;;;;;;7.80;99.90;;;;;;5052687;28;19952;-78
2023/11/11 06:00:30;;;;;;;;;;;8.00;99.90;;;;;;5052210;28;20023;-77
2023/11/11 06:02:59;;;;;;;;;;;7.90;99.90;;;;;;5070667;28;19931;-78
2023/11/11 06:05:28;;;;;;;;;;;7.90;99.90;;;;;;5070798;28;19905;-78
2023/11/11 06:07:54;;;;;;;;;;;7.40;99.90;;;;;;5052430;28;19919;-78
2023/11/11 06:10:44;;;;;;;;;;;7.90;99.90;;;;;;5070627;28;19991;-78
2023/11/11 06:13:10;;;;;;;;;;;7.80;99.90;;;;;;5069962;28;20360;-77
2023/11/11 06:15:37;;;;;;;;;;;8.00;99.90;;;;;;5053105;28;19915;-78
2023/11/11 06:18:04;;;;;;;;;;;8.00;99.90;;;;;;5051727;28;20003;-78
2023/11/11 06:20:33;;;;;;;;;;;8.10;99.90;;;;;;5047558;28;19909;-77
2023/11/11 06:22:59;;;;;;;;;;;8.40;99.90;;;;;;5038161;28;19908;-77
2023/11/11 06:25:24;;;;;;;;;;;8.40;99.90;;;;;;5059412;28;20289;-78
2023/11/11 06:27:50;;;;;;;;;;;8.20;99.90;;;;;;5056724;28;19913;-78
2023/11/11 06:30:17;;;;;;;;;;;8.20;99.90;;;;;;5057927;28;19905;-78
2023/11/11 06:32:42;;;;;;;;;;;8.20;99.90;;;;;;5044749;28;19944;-79
2023/11/11 06:35:08;;;;;;;;;;;8.20;99.90;;;;;;5044444;28;19916;-78
2023/11/11 06:37:35;;;;;;;;;;;8.20;99.90;;;;;;5044211;28;19908;-78
2023/11/11 06:40:02;;;;;;;;;;;8.30;99.90;;;;;;5060883;28;19905;-77
2023/11/11 06:42:27;;;;;;;;;;;8.30;99.90;;;;;;5060354;28;19916;-78
2023/11/11 06:44:53;;;;;;;;;;;8.30;99.90;;;;;;5061498;28;19904;-78
2023/11/11 06:47:18;;;;;;;;;;;8.30;99.90;;;;;;5042961;28;19924;-78
2023/11/11 06:49:44;;;;;;;;;;;8.40;99.90;;;;;;5060618;28;19951;-78
2023/11/11 06:52:10;;;;;;;;;;;8.30;99.90;;;;;;5043476;28;19909;-77
2023/11/11 06:54:36;;;;;;;;;;;8.40;99.90;;;;;;5059019;28;20273;-78
2023/11/11 06:57:03;;;;;;;;;;;8.40;99.90;;;;;;5061596;28;19918;-78
2023/11/11 06:59:29;;;;;;;;;;;8.40;99.90;;;;;;5043245;28;19909;-78
2023/11/11 07:01:54;;;;;;;;;;;8.50;99.90;;;;;;5042892;28;19914;-78
2023/11/11 07:04:20;;;;;;;;;;;8.50;99.90;;;;;;5059539;28;19999;-77
2023/11/11 07:06:45;;;;;;;;;;;8.50;99.90;;;;;;5044776;28;20420;-78
2023/11/11 07:09:12;;;;;;;;;;;8.50;99.90;;;;;;5044024;28;20280;-78
2023/11/11 07:11:38;;;;;;;;;;;8.50;99.90;;;;;;5043593;28;19915;-78
2023/11/11 07:14:03;;;;;;;;;;;8.50;99.90;;;;;;5059392;28;19904;-77
2023/11/11 07:16:29;;;;;;;;;;;8.50;99.90;;;;;;5037922;28;19909;-78
2023/11/11 07:18:54;;;;;;;;;;;8.50;99.90;;;;;;5060340;28;19904;-78
2023/11/11 07:21:22;;;;;;;;;;;8.60;99.90;;;;;;5066184;28;19905;-78
2023/11/11 07:23:48;;;;;;;;;;;8.60;99.90;;;;;;5059678;28;20379;-78
2023/11/11 07:26:16;;;;;;;;;;;8.60;99.90;;;;;;5061155;28;19931;-78
2023/11/11 07:28:45;;;;;;;;;;;8.60;99.90;;;;;;5058166;28;19920;-77
2023/11/11 07:31:17;;;;;;;;;;;8.70;99.90;;;;;;5056654;28;19904;-78
2023/11/11 07:33:42;;;;;;;;;;;8.50;99.90;;;;;;5057536;28;19934;-77
2023/11/11 07:36:10;;;;;;;;;;;8.50;99.90;;;;;;5057020;28;19962;-77
2023/11/11 07:38:42;;;;;;;;;;;8.60;99.90;;;;;;5057856;28;19913;-78
2023/11/11 07:41:08;;;;;;;;;;;8.50;99.90;;;;;;5056210;28;19940;-78
2023/11/11 07:43:36;;;;;;;;;;;8.50;99.90;;;;;;5053119;28;19908;-78
2023/11/11 07:46:05;;;;;;;;;;;8.60;99.90;;;;;;5054629;28;19919;-78
2023/11/11 07:48:31;;;;;;;;;;;8.60;99.90;;;;;;5054068;28;19917;-77
2023/11/11 07:50:57;;;;;;;;;;;8.60;99.90;;;;;;5037060;28;19905;-76
2023/11/11 07:53:23;;;;;;;;;;;8.60;99.90;;;;;;5054527;28;20389;-77
2023/11/11 07:55:48;;;;;;;;;;;8.60;99.90;;;;;;5036227;28;19914;-76
2023/11/11 07:58:14;;;;;;;;;;;8.60;99.90;;;;;;5038603;28;19944;-78
2023/11/11 08:00:39;;;;;;;;;;;8.50;99.90;;;;;;5054147;28;19958;-77
2023/11/11 08:03:05;;;;;;;;;;;8.50;99.90;;;;;;5054940;28;20455;-76
2023/11/11 08:05:32;;;;;;;;;;;8.60;99.90;;;;;;5055923;28;20003;-77
2023/11/11 08:07:58;;;;;;;;;;;8.60;99.90;;;;;;5055193;28;19927;-77
2023/11/11 08:10:24;;;;;;;;;;;8.60;99.90;;;;;;5036535;28;19904;-76
2023/11/11 08:12:52;;;;;;;;;;;8.60;99.90;;;;;;5054657;28;19912;-77
2023/11/11 08:15:21;;;;;;;;;;;8.60;99.90;;;;;;5039468;28;20404;-77
2023/11/11 08:17:48;;;;;;;;;;;8.60;99.90;;;;;;5054932;28;19905;-76
2023/11/11 08:20:16;;;;;;;;;;;8.70;99.90;;;;;;5037559;28;19940;-76
2023/11/11 08:22:49;;;;;;;;;;;8.70;99.90;;;;;;5035835;28;20122;-75
2023/11/11 08:25:15;;;;;;;;;;;8.70;99.90;;;;;;5055518;28;19908;-77
2023/11/11 08:27:41;;;;;;;;;;;8.70;99.90;;;;;;5038072;28;19940;-77
2023/11/11 08:30:10;;;;;;;;;;;8.70;99.90;;;;;;5035550;28;20328;-76
2023/11/11 08:32:36;;;;;;;;;;;8.70;99.90;;;;;;5051871;28;20027;-76
2023/11/11 08:35:01;;;;;;;;;;;8.90;99.90;;;;;;5051310;28;20004;-77
2023/11/11 08:37:26;;;;;;;;;;;8.80;99.90;;;;;;5051556;28;19908;-77
2023/11/11 08:39:52;;;;;;;;;;;8.70;99.90;;;;;;5050060;28;19911;-76
2023/11/11 08:42:19;;;;;;;;;;;8.80;99.90;;;;;;5051733;28;19908;-76
2023/11/11 08:44:44;;;;;;;;;;;8.70;99.90;;;;;;5054500;28;20026;-77
2023/11/11 08:47:10;;;;;;;;;;;8.70;99.90;;;;;;5029386;28;20349;-77
2023/11/11 08:49:37;;;;;;;;;;;8.70;99.90;;;;;;5020910;28;19921;-77
2023/11/11 08:52:04;;;;;;;;;;;8.70;99.90;;;;;;5020440;28;19971;-78
2023/11/11 08:54:30;;;;;;;;;;;8.70;99.90;;;;;;5020345;28;19908;-77
2023/11/11 08:56:56;;;;;;;;;;;8.70;99.90;;;;;;5035208;28;19915;-77
2023/11/11 08:59:21;;;;;;;;;;;8.70;99.90;;;;;;5035790;28;19909;-76
2023/11/11 09:01:47;;;;;;;;;;;8.70;99.90;;;;;;5037447;28;19913;-77
2023/11/11 09:04:13;;;;;;;;;;;8.70;99.90;;;;;;5036682;28;20262;-78
2023/11/11 09:06:38;;;;;;;;;;;8.70;99.90;;;;;;5019026;28;19920;-76
2023/11/11 09:09:04;;;;;;;;;;;8.70;99.90;;;;;;5036222;28;20292;-77
2023/11/11 09:11:39;;;;;;;;;;;8.70;99.90;;;;;;5035593;28;19993;-76
2023/11/11 09:14:05;;;;;;;;;;;8.70;99.90;;;;;;5035185;28;19996;-77
2023/11/11 09:16:32;;;;;;;;;;;8.70;99.90;;;;;;5017647;28;20292;-76
2023/11/11 09:19:03;;;;;;;;;;;8.80;99.90;;;;;;5034262;28;19905;-77
2023/11/11 09:21:29;;;;;;;;;;;8.80;99.90;;;;;;5035293;28;20027;-76
2023/11/11 09:23:54;;;;;;;;;;;8.70;99.90;;;;;;5036607;28;19936;-78
2023/11/11 09:26:21;;;;;;;;;;;8.80;99.90;;;;;;5018095;28;19909;-77
2023/11/11 09:28:48;;;;;;;;;;;8.80;99.90;;;;;;5018308;28;19919;-77
2023/11/11 09:31:13;;;;;;;;;;;8.80;99.90;;;;;;5036156;28;19963;-77
2023/11/11 09:33:39;;;;;;;;;;;8.80;99.90;;;;;;5036482;28;19913;-78
2023/11/11 09:36:06;;;;;;;;;;;8.90;99.90;;;;;;5036572;28;20296;-77
2023/11/11 09:38:32;;;;;;;;;;;8.90;99.90;;;;;;5036124;28;19915;-78
2023/11/11 09:40:58;;;;;;;;;;;8.90;99.90;;;;;;5018323;28;20003;-78
2023/11/11 09:43:23;;;;;;;;;;;8.90;99.90;;;;;;5035809;28;20336;-77
2023/11/11 09:45:50;;;;;;;;;;;8.90;99.90;;;;;;5018260;28;19913;-77
2023/11/11 09:48:16;;;;;;;;;;;8.90;99.90;;;;;;5049583;28;20031;-77
2023/11/11 09:50:44;;;;;;;;;;;8.90;99.90;;;;;;5055772;28;19919;-77
2023/11/11 09:53:10;;;;;;;;;;;8.90;99.90;;;;;;5056849;28;19909;-77
2023/11/11 09:55:36;;;;;;;;;;;8.90;99.90;;;;;;5037909;28;19912;-78
2023/11/11 09:58:03;;;;;;;;;;;8.90;99.90;;;;;;5055777;28;19985;-77
2023/11/11 10:00:30;;;;;;;;;;;8.90;99.90;;;;;;5056292;28;19913;-78
2023/11/11 10:02:56;;;;;;;;;;;8.90;99.90;;;;;;5038233;28;20310;-76
2023/11/11 10:05:22;;;;;;;;;;;8.90;99.90;;;;;;5054882;28;19904;-76
2023/11/11 10:07:48;;;;;;;;;;;8.90;99.90;;;;;;5037822;28;19936;-76
2023/11/11 10:10:15;;;;;;;;;;;8.90;99.90;;;;;;5054563;28;20388;-77
2023/11/11 10:12:41;;;;;;;;;;;8.90;99.90;;;;;;5054223;28;19909;-76
2023/11/11 10:15:08;;;;;;;;;;;8.80;99.90;;;;;;5056641;28;20007;-77
2023/11/11 10:17:40;;;;;;;;;;;8.90;99.90;;;;;;5038322;28;20519;-77
2023/11/11 10:20:15;;;;;;;;;;;8.90;99.90;;;;;;5055896;28;19915;-77
2023/11/11 10:22:44;;;;;;;;;;;8.80;99.90;;;;;;5037659;28;20390;-76
2023/11/11 10:25:17;;;;;;;;;;;8.80;99.90;;;;;;5054565;28;19935;-76
2023/11/11 10:27:53;;;;;;;;;;;8.80;99.90;;;;;;5049089;28;19912;-76
2023/11/11 10:30:19;;;;;;;;;;;8.70;99.90;;;;;;5051926;28;19913;-76
2023/11/11 10:32:48;;;;;;;;;;;8.70;99.90;;;;;;5049091;28;19912;-76
2023/11/11 10:35:17;;;;;;;;;;;8.70;99.90;;;;;;5053742;28;19965;-76
2023/11/11 10:37:43;;;;;;;;;;;8.70;99.90;;;;;;5040519;28;20384;-79
2023/11/11 10:40:09;;;;;;;;;;;8.70;99.90;;;;;;5072163;28;19915;-78
2023/11/11 10:42:35;;;;;;;;;;;8.70;99.90;;;;;;5057608;28;19904;-78
2023/11/11 10:45:02;;;;;;;;;;;8.70;99.90;;;;;;5075551;28;19904;-77
2023/11/11 10:47:28;;;;;;;;;;;8.70;99.90;;;;;;5063604;28;19928;-77
2023/11/11 10:49:57;;;;;;;;;;;8.70;99.90;;;;;;5055524;28;19967;-77
2023/11/11 10:52:24;;;;;;;;;;;8.70;99.90;;;;;;5055087;28;20031;-77
2023/11/11 10:54:51;;;;;;;;;;;8.70;99.90;;;;;;5038027;28;19919;-79
2023/11/11 10:57:17;;;;;;;;;;;8.70;99.90;;;;;;5035379;28;19909;-78
2023/11/11 10:59:43;;;;;;;;;;;8.80;99.90;;;;;;5043977;28;19905;-78
2023/11/11 11:02:10;;;;;;;;;;;8.70;99.90;;;;;;5036314;28;19928;-77
2023/11/11 11:04:38;;;;;;;;;;;8.70;99.90;;;;;;5034552;28;19968;-78
2023/11/11 11:07:09;;;;;;;;;;;8.70;99.90;;;;;;5017642;28;19913;-77
2023/11/11 11:09:38;;;;;;;;;;;8.70;99.90;;;;;;5034215;28;19909;-77
2023/11/11 11:12:21;;;;;;;;;;;8.70;99.90;;;;;;5034024;28;19905;-78
2023/11/11 11:14:51;;;;;;;;;;;8.70;99.90;;;;;;5036359;28;19905;-77
2023/11/11 11:17:17;;;;;;;;;;;8.70;99.90;;;;;;5018331;28;19913;-78
2023/11/11 11:19:52;;;;;;;;;;;8.60;99.90;;;;;;5018046;28;19916;-76
2023/11/11 11:22:17;;;;;;;;;;;8.70;99.90;;;;;;5035157;28;19964;-78
2023/11/11 11:24:44;;;;;;;;;;;8.60;99.90;;;;;;5034281;28;19940;-78
2023/11/11 11:27:11;;;;;;;;;;;8.60;99.90;;;;;;5034705;28;20027;-78
2023/11/11 11:29:36;;;;;;;;;;;8.60;99.90;;;;;;5018063;28;20427;-78
2023/11/11 11:32:02;;;;;;;;;;;8.60;99.90;;;;;;5046717;28;19954;-78
2023/11/11 11:34:28;;;;;;;;;;;8.60;99.90;;;;;;5017902;28;19909;-78
2023/11/11 11:36:54;;;;;;;;;;;8.60;99.90;;;;;;5035518;28;19916;-78
2023/11/11 11:39:21;;;;;;;;;;;8.60;99.90;;;;;;5018537;28;19908;-78
2023/11/11 11:41:46;;;;;;;;;;;8.60;99.90;;;;;;5035911;28;19905;-78
2023/11/11 11:44:12;;;;;;;;;;;8.60;99.90;;;;;;5035755;28;20435;-77
2023/11/11 11:46:38;;;;;;;;;;;8.60;99.90;;;;;;5021995;28;20007;-78
2023/11/11 11:49:05;;;;;;;;;;;8.60;99.90;;;;;;5054621;28;19916;-78
2023/11/11 11:51:31;;;;;;;;;;;8.60;99.90;;;;;;5054541;28;19909;-77
2023/11/11 11:53:56;;;;;;;;;;;8.60;99.90;;;;;;5038597;28;19911;-78
2023/11/11 11:56:40;;;;;;;;;;;8.60;99.90;;;;;;5060600;28;20292;-77
2023/11/11 11:59:11;;;;;;;;;;;8.60;99.90;;;;;;5071163;28;19934;-78
2023/11/11 12:01:36;;;;;;;;;;;8.60;99.90;;;;;;5054609;28;19908;-78
2023/11/11 12:04:03;;;;;;;;;;;8.60;99.90;;;;;;5067253;28;20435;-78
2023/11/11 12:06:29;;;;;;;;;;;8.60;99.90;;;;;;5049879;28;19909;-78
2023/11/11 12:08:55;;;;;;;;;;;8.60;99.90;;;;;;5056022;28;19913;-78
2023/11/11 12:11:25;;;;;;;;;;;8.60;99.90;;;;;;5069068;28;19914;-78
2023/11/11 12:13:51;;;;;;;;;;;8.50;99.90;;;;;;5056114;28;19905;-78
2023/11/11 12:16:17;;;;;;;;;;;8.50;99.90;;;;;;5055968;28;19913;-77
2023/11/11 12:18:43;;;;;;;;;;;8.50;99.90;;;;;;5056893;28;19904;-77
2023/11/11 12:21:08;;;;;;;;;;;8.50;99.90;;;;;;5076434;28;19908;-78
2023/11/11 12:23:34;;;;;;;;;;;8.50;99.90;;;;;;5058334;28;19961;-77
2023/11/11 12:26:01;;;;;;;;;;;8.50;99.90;;;;;;5069421;28;20276;-75
2023/11/11 12:28:29;;;;;;;;;;;8.40;99.90;;;;;;5035308;28;19927;-75
2023/11/11 12:31:03;;;;;;;;;;;8.40;99.90;;;;;;5069964;28;19908;-75
2023/11/11 12:33:29;;;;;;;;;;;8.40;99.90;;;;;;5070218;28;19916;-75
2023/11/11 12:35:54;;;;;;;;;;;8.40;99.90;;;;;;5052132;28;19904;-75
2023/11/11 12:38:23;;;;;;;;;;;8.40;99.90;;;;;;5070063;28;19909;-75
2023/11/11 12:40:49;;;;;;;;;;;8.40;99.90;;;;;;5070074;28;19911;-75
2023/11/11 12:43:15;;;;;;;;;;;8.30;99.90;;;;;;5052239;28;19911;-75
2023/11/11 12:45:54;;;;;;;;;;;8.30;99.90;;;;;;5052151;28;20383;-75
2023/11/11 12:48:22;;;;;;;;;;;8.20;99.90;;;;;;5053739;28;20375;-76
2023/11/11 12:50:47;;;;;;;;;;;8.20;99.90;;;;;;5072840;28;20150;-75
2023/11/11 12:53:17;;;;;;;;;;;8.20;99.90;;;;;;5052086;28;20466;-75
2023/11/11 12:55:43;;;;;;;;;;;8.10;99.90;;;;;;5052045;28;19904;-75
2023/11/11 12:58:21;;;;;;;;;;;8.10;99.90;;;;;;5069592;28;20018;-75
2023/11/11 13:00:50;;;;;;;;;;;8.10;99.90;;;;;;5051801;28;19915;-77
2023/11/11 13:03:26;;;;;;;;;;;8.10;99.90;;;;;;5070415;28;19905;-76
2023/11/11 13:06:05;;;;;;;;;;;8.20;99.90;;;;;;5052280;28;19904;-76
2023/11/11 13:08:31;;;;;;;;;;;8.20;99.90;;;;;;5048119;28;20356;-76
2023/11/11 13:10:59;;;;;;;;;;;8.30;99.90;;;;;;5069958;28;20375;-75
2023/11/11 13:13:24;;;;;;;;;;;8.20;99.90;;;;;;5069808;28;20359;-76
2023/11/11 13:15:54;;;;;;;;;;;8.20;99.90;;;;;;5070023;28;19908;-76
2023/11/11 13:18:22;;;;;;;;;;;8.30;99.90;;;;;;5070788;28;19942;-76
2023/11/11 13:20:50;;;;;;;;;;;8.30;99.90;;;;;;5070739;28;20698;-76
2023/11/11 13:23:19;;;;;;;;;;;8.30;99.90;;;;;;5070263;28;19959;-76
2023/11/11 13:25:45;;;;;;;;;;;8.30;99.90;;;;;;5070737;28;20349;-76
2023/11/11 13:28:12;;;;;;;;;;;8.30;99.90;;;;;;5070859;28;19970;-77
2023/11/11 13:30:40;;;;;;;;;;;8.30;99.90;;;;;;5054308;28;19912;-76
2023/11/11 13:33:09;;;;;;;;;;;8.40;99.90;;;;;;5074377;28;19915;-76
2023/11/11 13:35:41;;;;;;;;;;;8.40;99.90;;;;;;5074182;28;19905;-76
2023/11/11 13:38:10;;;;;;;;;;;8.40;99.90;;;;;;5073380;28;19939;-76
2023/11/11 13:40:39;;;;;;;;;;;8.50;99.90;;;;;;5074426;28;19947;-76
2023/11/11 13:43:05;;;;;;;;;;;8.40;99.90;;;;;;5056250;28;19904;-76
2023/11/11 13:45:33;;;;;;;;;;;8.40;99.90;;;;;;5074567;28;19911;-76
2023/11/11 13:47:59;;;;;;;;;;;8.40;99.90;;;;;;5073810;28;20121;-77
2023/11/11 13:50:26;;;;;;;;;;;8.40;99.90;;;;;;5056609;28;19908;-76
2023/11/11 13:52:56;;;;;;;;;;;8.40;99.90;;;;;;5056313;28;20292;-77
2023/11/11 13:55:22;;;;;;;;;;;8.40;99.90;;;;;;5074367;28;20015;-76
2023/11/11 13:57:48;;;;;;;;;;;8.40;99.90;;;;;;5074336;28;19909;-76
2023/11/11 14:00:37;;;;;;;;;;;8.30;99.90;;;;;;5074015;28;19904;-75
2023/11/11 14:03:01;;;;;;;;;;;8.30;99.90;;;;;;5068064;28;19909;-76
2023/11/11 14:05:27;;;;;;;;;;;8.30;99.90;;;;;;5056729;28;20372;-76
2023/11/11 14:07:53;;;;;;;;;;;8.30;99.90;;;;;;5056524;28;19924;-76
2023/11/11 14:10:23;;;;;;;;;;;8.30;99.90;;;;;;5073984;28;19914;-76
2023/11/11 14:12:50;;;;;;;;;;;8.30;99.90;;;;;;5069487;28;19995;-76
2023/11/11 14:15:18;;;;;;;;;;;8.30;99.90;;;;;;5056041;28;19947;-77
2023/11/11 14:17:44;;;;;;;;;;;8.30;99.90;;;;;;5056297;28;20449;-76
2023/11/11 14:20:11;;;;;;;;;;;8.20;99.90;;;;;;5074005;28;19912;-76
2023/11/11 14:22:37;;;;;;;;;;;8.20;99.90;;;;;;5061357;28;19911;-74
2023/11/11 14:25:02;;;;;;;;;;;8.20;99.90;;;;;;5072390;28;20297;-75
2023/11/11 14:27:28;;;;;;;;;;;8.20;99.90;;;;;;5071954;28;19923;-75
2023/11/11 14:29:53;;;;;;;;;;;8.10;99.90;;;;;;5072035;28;20327;-74
2023/11/11 14:32:19;;;;;;;;;;;8.00;99.90;;;;;;5070273;28;19917;-74